sensor_id;sensor_type;location;lat;lon;timestamp;P1;durP1;ratioP1;P2;durP2;ratioP2
32319;SDS011;19080;51.750;5.888;2023-02-15T00:01:41;40.03;;;24.50;;
32319;SDS011;19080;51.750;5.888;2023-02-15T00:04:08;37.78;;;23.13;;
32319;SDS011;19080;51.750;5.888;2023-02-15T00:06:36;37.75;;;23.08;;
32319;SDS011;19080;51.750;5.888;2023-02-15T00:09:02;41.97;;;23.00;;
32319;SDS011;19080;51.750;5.888;2023-02-15T00:11:29;39.15;;;24.05;;
32319;SDS011;19080;51.750;5.888;2023-02-15T00:14:16;35.28;;;22.55;;
32319;SDS011;19080;51.750;5.888;2023-02-15T00:16:48;35.83;;;21.55;;
32319;SDS011;19080;51.750;5.888;2023-02-15T00:19:16;37.17;;;22.15;;
32319;SDS011;19080;51.750;5.888;2023-02-15T00:21:44;33.58;;;21.52;;
32319;SDS011;19080;51.750;5.888;2023-02-15T00:24:12;36.92;;;22.20;;
32319;SDS011;19080;51.750;5.888;2023-02-15T00:26:41;36.53;;;22.35;;
32319;SDS011;19080;51.750;5.888;2023-02-15T00:29:09;38.28;;;22.13;;
32319;SDS011;19080;51.750;5.888;2023-02-15T00:31:36;33.92;;;20.95;;
32319;SDS011;19080;51.750;5.888;2023-02-15T00:34:04;34.60;;;21.13;;
32319;SDS011;19080;51.750;5.888;2023-02-15T00:36:34;32.92;;;22.15;;
32319;SDS011;19080;51.750;5.888;2023-02-15T00:39:01;34.42;;;20.98;;
32319;SDS011;19080;51.750;5.888;2023-02-15T00:41:27;35.28;;;21.38;;
32319;SDS011;19080;51.750;5.888;2023-02-15T00:43:54;33.03;;;22.20;;
32319;SDS011;19080;51.750;5.888;2023-02-15T00:46:21;37.75;;;22.90;;
32319;SDS011;19080;51.750;5.888;2023-02-15T00:48:48;31.10;;;19.52;;
32319;SDS011;19080;51.750;5.888;2023-02-15T00:51:15;31.92;;;20.55;;
32319;SDS011;19080;51.750;5.888;2023-02-15T00:53:42;35.50;;;21.60;;
32319;SDS011;19080;51.750;5.888;2023-02-15T00:56:10;32.22;;;21.02;;
32319;SDS011;19080;51.750;5.888;2023-02-15T00:58:37;34.25;;;21.17;;
32319;SDS011;19080;51.750;5.888;2023-02-15T01:01:04;40.33;;;22.95;;
32319;SDS011;19080;51.750;5.888;2023-02-15T01:03:33;35.38;;;21.20;;
32319;SDS011;19080;51.750;5.888;2023-02-15T01:06:01;37.47;;;22.27;;
32319;SDS011;19080;51.750;5.888;2023-02-15T01:08:29;37.15;;;22.27;;
32319;SDS011;19080;51.750;5.888;2023-02-15T01:10:56;40.97;;;23.40;;
32319;SDS011;19080;51.750;5.888;2023-02-15T01:13:23;37.85;;;22.73;;
32319;SDS011;19080;51.750;5.888;2023-02-15T01:15:53;41.33;;;25.33;;
32319;SDS011;19080;51.750;5.888;2023-02-15T01:18:21;39.67;;;23.08;;
32319;SDS011;19080;51.750;5.888;2023-02-15T01:20:48;33.47;;;21.70;;
32319;SDS011;19080;51.750;5.888;2023-02-15T01:23:15;33.83;;;21.65;;
32319;SDS011;19080;51.750;5.888;2023-02-15T01:25:45;38.03;;;21.45;;
32319;SDS011;19080;51.750;5.888;2023-02-15T01:28:11;36.05;;;22.05;;
32319;SDS011;19080;51.750;5.888;2023-02-15T01:30:38;36.92;;;22.02;;
32319;SDS011;19080;51.750;5.888;2023-02-15T01:33:05;35.28;;;23.02;;
32319;SDS011;19080;51.750;5.888;2023-02-15T01:35:31;36.92;;;22.17;;
32319;SDS011;19080;51.750;5.888;2023-02-15T01:37:58;35.50;;;22.88;;
32319;SDS011;19080;51.750;5.888;2023-02-15T01:40:25;40.20;;;23.63;;
32319;SDS011;19080;51.750;5.888;2023-02-15T01:42:52;38.55;;;21.77;;
32319;SDS011;19080;51.750;5.888;2023-02-15T01:45:22;36.95;;;23.15;;
32319;SDS011;19080;51.750;5.888;2023-02-15T01:52:58;38.30;;;23.52;;
32319;SDS011;19080;51.750;5.888;2023-02-15T01:55:33;38.80;;;22.42;;
32319;SDS011;19080;51.750;5.888;2023-02-15T01:58:03;36.33;;;23.27;;
32319;SDS011;19080;51.750;5.888;2023-02-15T02:00:30;43.38;;;24.75;;
32319;SDS011;19080;51.750;5.888;2023-02-15T02:02:57;38.13;;;23.58;;
32319;SDS011;19080;51.750;5.888;2023-02-15T02:05:25;39.15;;;24.02;;
32319;SDS011;19080;51.750;5.888;2023-02-15T02:07:52;41.13;;;23.25;;
32319;SDS011;19080;51.750;5.888;2023-02-15T02:10:22;41.78;;;23.48;;
32319;SDS011;19080;51.750;5.888;2023-02-15T02:12:50;40.10;;;23.83;;
32319;SDS011;19080;51.750;5.888;2023-02-15T02:15:39;38.25;;;23.85;;
32319;SDS011;19080;51.750;5.888;2023-02-15T02:21:10;38.95;;;22.40;;
32319;SDS011;19080;51.750;5.888;2023-02-15T02:29:59;37.65;;;22.38;;
32319;SDS011;19080;51.750;5.888;2023-02-15T02:38:08;41.05;;;23.73;;
32319;SDS011;19080;51.750;5.888;2023-02-15T02:40:54;36.92;;;22.23;;
32319;SDS011;19080;51.750;5.888;2023-02-15T02:46:05;40.38;;;23.75;;
32319;SDS011;19080;51.750;5.888;2023-02-15T02:48:36;39.17;;;23.67;;
32319;SDS011;19080;51.750;5.888;2023-02-15T02:51:04;37.58;;;22.63;;
32319;SDS011;19080;51.750;5.888;2023-02-15T02:53:31;39.65;;;23.10;;
32319;SDS011;19080;51.750;5.888;2023-02-15T02:56:03;37.10;;;22.90;;
32319;SDS011;19080;51.750;5.888;2023-02-15T02:58:45;36.75;;;22.52;;
32319;SDS011;19080;51.750;5.888;2023-02-15T03:01:16;37.15;;;22.00;;
32319;SDS011;19080;51.750;5.888;2023-02-15T03:03:59;39.05;;;23.67;;
32319;SDS011;19080;51.750;5.888;2023-02-15T03:06:58;36.28;;;22.60;;
32319;SDS011;19080;51.750;5.888;2023-02-15T03:09:28;42.83;;;24.65;;
32319;SDS011;19080;51.750;5.888;2023-02-15T03:12:18;42.47;;;23.13;;
32319;SDS011;19080;51.750;5.888;2023-02-15T03:14:48;44.30;;;23.83;;
32319;SDS011;19080;51.750;5.888;2023-02-15T03:17:22;40.35;;;24.10;;
32319;SDS011;19080;51.750;5.888;2023-02-15T03:19:53;37.47;;;23.95;;
32319;SDS011;19080;51.750;5.888;2023-02-15T03:22:28;45.55;;;24.08;;
32319;SDS011;19080;51.750;5.888;2023-02-15T03:25:25;41.65;;;24.65;;
32319;SDS011;19080;51.750;5.888;2023-02-15T03:28:00;38.22;;;23.55;;
32319;SDS011;19080;51.750;5.888;2023-02-15T03:30:31;43.17;;;23.02;;
32319;SDS011;19080;51.750;5.888;2023-02-15T03:33:00;42.33;;;24.00;;
32319;SDS011;19080;51.750;5.888;2023-02-15T03:35:32;37.45;;;22.13;;
32319;SDS011;19080;51.750;5.888;2023-02-15T03:38:06;42.78;;;24.77;;
32319;SDS011;19080;51.750;5.888;2023-02-15T03:40:39;41.13;;;23.65;;
32319;SDS011;19080;51.750;5.888;2023-02-15T03:46:23;46.80;;;24.58;;
32319;SDS011;19080;51.750;5.888;2023-02-15T03:49:02;41.63;;;25.35;;
32319;SDS011;19080;51.750;5.888;2023-02-15T03:51:33;42.15;;;23.73;;
32319;SDS011;19080;51.750;5.888;2023-02-15T03:57:10;42.40;;;23.58;;
32319;SDS011;19080;51.750;5.888;2023-02-15T04:00:19;47.40;;;25.58;;
32319;SDS011;19080;51.750;5.888;2023-02-15T04:03:12;42.88;;;24.60;;
32319;SDS011;19080;51.750;5.888;2023-02-15T04:05:48;40.15;;;24.52;;
32319;SDS011;19080;51.750;5.888;2023-02-15T04:08:15;44.22;;;24.95;;
32319;SDS011;19080;51.750;5.888;2023-02-15T04:10:42;42.05;;;24.75;;
32319;SDS011;19080;51.750;5.888;2023-02-15T04:13:28;41.80;;;22.90;;
32319;SDS011;19080;51.750;5.888;2023-02-15T04:15:56;44.78;;;25.08;;
32319;SDS011;19080;51.750;5.888;2023-02-15T04:18:31;46.28;;;26.15;;
32319;SDS011;19080;51.750;5.888;2023-02-15T04:21:25;48.85;;;25.80;;
32319;SDS011;19080;51.750;5.888;2023-02-15T04:24:11;45.85;;;25.48;;
32319;SDS011;19080;51.750;5.888;2023-02-15T04:26:58;44.70;;;26.23;;
32319;SDS011;19080;51.750;5.888;2023-02-15T04:29:25;40.45;;;23.95;;
32319;SDS011;19080;51.750;5.888;2023-02-15T04:31:53;44.70;;;24.75;;
32319;SDS011;19080;51.750;5.888;2023-02-15T04:34:21;45.05;;;26.17;;
32319;SDS011;19080;51.750;5.888;2023-02-15T04:36:48;46.63;;;25.80;;
32319;SDS011;19080;51.750;5.888;2023-02-15T04:39:16;44.58;;;25.30;;
32319;SDS011;19080;51.750;5.888;2023-02-15T04:41:44;42.60;;;24.35;;
32319;SDS011;19080;51.750;5.888;2023-02-15T04:44:10;44.65;;;25.45;;
32319;SDS011;19080;51.750;5.888;2023-02-15T04:46:37;50.35;;;27.15;;
32319;SDS011;19080;51.750;5.888;2023-02-15T04:49:04;46.08;;;24.58;;
32319;SDS011;19080;51.750;5.888;2023-02-15T04:51:31;43.45;;;25.45;;
32319;SDS011;19080;51.750;5.888;2023-02-15T04:53:57;51.67;;;27.63;;
32319;SDS011;19080;51.750;5.888;2023-02-15T04:56:24;50.97;;;27.55;;
32319;SDS011;19080;51.750;5.888;2023-02-15T04:58:50;47.22;;;25.35;;
32319;SDS011;19080;51.750;5.888;2023-02-15T05:01:17;46.25;;;25.95;;
32319;SDS011;19080;51.750;5.888;2023-02-15T05:03:45;43.38;;;25.30;;
32319;SDS011;19080;51.750;5.888;2023-02-15T05:06:11;47.10;;;25.55;;
32319;SDS011;19080;51.750;5.888;2023-02-15T05:08:38;48.20;;;26.35;;
32319;SDS011;19080;51.750;5.888;2023-02-15T05:11:04;51.30;;;26.65;;
32319;SDS011;19080;51.750;5.888;2023-02-15T05:13:31;48.63;;;27.00;;
32319;SDS011;19080;51.750;5.888;2023-02-15T05:15:57;43.33;;;25.38;;
32319;SDS011;19080;51.750;5.888;2023-02-15T05:18:25;50.08;;;27.08;;
32319;SDS011;19080;51.750;5.888;2023-02-15T05:20:51;50.03;;;27.10;;
32319;SDS011;19080;51.750;5.888;2023-02-15T05:23:18;50.42;;;26.73;;
32319;SDS011;19080;51.750;5.888;2023-02-15T05:25:48;46.75;;;26.52;;
32319;SDS011;19080;51.750;5.888;2023-02-15T05:28:35;49.58;;;27.95;;
32319;SDS011;19080;51.750;5.888;2023-02-15T05:31:05;55.75;;;28.88;;
32319;SDS011;19080;51.750;5.888;2023-02-15T05:33:39;50.97;;;27.92;;
32319;SDS011;19080;51.750;5.888;2023-02-15T05:36:07;51.20;;;25.63;;
32319;SDS011;19080;51.750;5.888;2023-02-15T05:38:34;47.53;;;26.90;;
32319;SDS011;19080;51.750;5.888;2023-02-15T05:41:06;46.70;;;26.67;;
32319;SDS011;19080;51.750;5.888;2023-02-15T05:43:33;52.92;;;28.63;;
32319;SDS011;19080;51.750;5.888;2023-02-15T05:46:01;49.35;;;27.33;;
32319;SDS011;19080;51.750;5.888;2023-02-15T05:48:28;45.22;;;26.13;;
32319;SDS011;19080;51.750;5.888;2023-02-15T05:53:30;44.97;;;26.05;;
32319;SDS011;19080;51.750;5.888;2023-02-15T05:55:58;48.50;;;27.83;;
32319;SDS011;19080;51.750;5.888;2023-02-15T05:58:27;47.65;;;26.10;;
32319;SDS011;19080;51.750;5.888;2023-02-15T06:00:56;51.83;;;27.60;;
32319;SDS011;19080;51.750;5.888;2023-02-15T06:03:23;47.30;;;27.50;;
32319;SDS011;19080;51.750;5.888;2023-02-15T06:05:52;45.95;;;26.75;;
32319;SDS011;19080;51.750;5.888;2023-02-15T06:08:19;46.08;;;26.60;;
32319;SDS011;19080;51.750;5.888;2023-02-15T06:10:45;49.50;;;28.02;;
32319;SDS011;19080;51.750;5.888;2023-02-15T06:13:12;48.25;;;25.80;;
32319;SDS011;19080;51.750;5.888;2023-02-15T06:15:39;47.13;;;27.27;;
32319;SDS011;19080;51.750;5.888;2023-02-15T06:18:06;51.25;;;26.48;;
32319;SDS011;19080;51.750;5.888;2023-02-15T06:20:35;48.35;;;26.95;;
32319;SDS011;19080;51.750;5.888;2023-02-15T06:23:02;46.03;;;26.42;;
32319;SDS011;19080;51.750;5.888;2023-02-15T06:25:29;55.05;;;28.38;;
32319;SDS011;19080;51.750;5.888;2023-02-15T06:27:56;46.47;;;27.38;;
32319;SDS011;19080;51.750;5.888;2023-02-15T06:30:23;55.05;;;28.33;;
32319;SDS011;19080;51.750;5.888;2023-02-15T06:32:49;46.95;;;27.63;;
32319;SDS011;19080;51.750;5.888;2023-02-15T06:35:16;47.17;;;27.58;;
32319;SDS011;19080;51.750;5.888;2023-02-15T06:37:44;44.20;;;27.73;;
32319;SDS011;19080;51.750;5.888;2023-02-15T06:40:12;46.05;;;27.45;;
32319;SDS011;19080;51.750;5.888;2023-02-15T06:42:39;51.10;;;27.77;;
32319;SDS011;19080;51.750;5.888;2023-02-15T06:45:07;47.78;;;27.38;;
32319;SDS011;19080;51.750;5.888;2023-02-15T06:47:34;53.30;;;27.90;;
32319;SDS011;19080;51.750;5.888;2023-02-15T06:50:01;56.92;;;30.85;;
32319;SDS011;19080;51.750;5.888;2023-02-15T06:52:27;54.42;;;28.98;;
32319;SDS011;19080;51.750;5.888;2023-02-15T06:54:55;57.58;;;29.42;;
32319;SDS011;19080;51.750;5.888;2023-02-15T06:57:22;50.30;;;28.80;;
32319;SDS011;19080;51.750;5.888;2023-02-15T06:59:48;51.60;;;29.45;;
32319;SDS011;19080;51.750;5.888;2023-02-15T07:02:15;52.80;;;28.90;;
32319;SDS011;19080;51.750;5.888;2023-02-15T07:04:42;51.30;;;27.77;;
32319;SDS011;19080;51.750;5.888;2023-02-15T07:07:09;53.65;;;30.40;;
32319;SDS011;19080;51.750;5.888;2023-02-15T07:09:38;53.17;;;28.83;;
32319;SDS011;19080;51.750;5.888;2023-02-15T07:12:05;56.60;;;30.63;;
32319;SDS011;19080;51.750;5.888;2023-02-15T07:14:50;55.88;;;30.70;;
32319;SDS011;19080;51.750;5.888;2023-02-15T07:17:17;54.72;;;29.90;;
32319;SDS011;19080;51.750;5.888;2023-02-15T07:20:03;53.75;;;29.70;;
32319;SDS011;19080;51.750;5.888;2023-02-15T07:22:31;53.17;;;29.90;;
32319;SDS011;19080;51.750;5.888;2023-02-15T07:25:00;52.92;;;29.30;;
32319;SDS011;19080;51.750;5.888;2023-02-15T07:27:27;51.90;;;29.02;;
32319;SDS011;19080;51.750;5.888;2023-02-15T07:29:53;52.85;;;29.48;;
32319;SDS011;19080;51.750;5.888;2023-02-15T07:32:20;56.78;;;29.35;;
32319;SDS011;19080;51.750;5.888;2023-02-15T07:34:47;59.42;;;31.90;;
32319;SDS011;19080;51.750;5.888;2023-02-15T07:37:13;57.72;;;31.58;;
32319;SDS011;19080;51.750;5.888;2023-02-15T07:39:40;62.80;;;32.53;;
32319;SDS011;19080;51.750;5.888;2023-02-15T07:42:06;56.78;;;31.10;;
32319;SDS011;19080;51.750;5.888;2023-02-15T07:44:35;55.75;;;30.17;;
32319;SDS011;19080;51.750;5.888;2023-02-15T07:47:01;57.35;;;29.35;;
32319;SDS011;19080;51.750;5.888;2023-02-15T07:49:28;48.83;;;28.50;;
32319;SDS011;19080;51.750;5.888;2023-02-15T07:51:55;45.55;;;28.30;;
32319;SDS011;19080;51.750;5.888;2023-02-15T07:54:21;44.95;;;27.48;;
32319;SDS011;19080;51.750;5.888;2023-02-15T07:56:48;44.58;;;27.50;;
32319;SDS011;19080;51.750;5.888;2023-02-15T07:59:14;44.40;;;27.45;;
32319;SDS011;19080;51.750;5.888;2023-02-15T08:01:41;45.92;;;25.35;;
32319;SDS011;19080;51.750;5.888;2023-02-15T08:04:08;46.00;;;26.00;;
32319;SDS011;19080;51.750;5.888;2023-02-15T08:06:37;37.53;;;24.33;;
32319;SDS011;19080;51.750;5.888;2023-02-15T08:09:05;38.97;;;24.35;;
32319;SDS011;19080;51.750;5.888;2023-02-15T08:11:34;38.20;;;25.20;;
32319;SDS011;19080;51.750;5.888;2023-02-15T08:16:40;38.53;;;25.05;;
32319;SDS011;19080;51.750;5.888;2023-02-15T08:19:24;40.63;;;25.35;;
32319;SDS011;19080;51.750;5.888;2023-02-15T08:24:24;34.83;;;22.88;;
32319;SDS011;19080;51.750;5.888;2023-02-15T08:26:53;36.80;;;24.27;;
32319;SDS011;19080;51.750;5.888;2023-02-15T08:29:20;41.65;;;23.25;;
32319;SDS011;19080;51.750;5.888;2023-02-15T08:31:52;35.85;;;23.50;;
32319;SDS011;19080;51.750;5.888;2023-02-15T08:34:20;36.20;;;23.95;;
32319;SDS011;19080;51.750;5.888;2023-02-15T08:36:47;33.75;;;22.40;;
32319;SDS011;19080;51.750;5.888;2023-02-15T08:39:14;36.05;;;23.58;;
32319;SDS011;19080;51.750;5.888;2023-02-15T08:41:42;40.42;;;24.98;;
32319;SDS011;19080;51.750;5.888;2023-02-15T08:44:10;34.00;;;23.25;;
32319;SDS011;19080;51.750;5.888;2023-02-15T08:46:38;37.92;;;25.25;;
32319;SDS011;19080;51.750;5.888;2023-02-15T08:49:07;34.65;;;22.60;;
32319;SDS011;19080;51.750;5.888;2023-02-15T08:51:35;35.08;;;23.27;;
32319;SDS011;19080;51.750;5.888;2023-02-15T08:54:04;36.85;;;23.80;;
32319;SDS011;19080;51.750;5.888;2023-02-15T08:56:36;35.90;;;23.27;;
32319;SDS011;19080;51.750;5.888;2023-02-15T08:59:05;35.15;;;22.83;;
32319;SDS011;19080;51.750;5.888;2023-02-15T09:01:34;36.72;;;23.42;;
32319;SDS011;19080;51.750;5.888;2023-02-15T09:04:02;36.80;;;24.13;;
32319;SDS011;19080;51.750;5.888;2023-02-15T09:06:32;31.10;;;21.75;;
32319;SDS011;19080;51.750;5.888;2023-02-15T09:08:59;33.85;;;22.80;;
32319;SDS011;19080;51.750;5.888;2023-02-15T09:11:29;34.35;;;22.08;;
32319;SDS011;19080;51.750;5.888;2023-02-15T09:14:00;32.33;;;22.45;;
32319;SDS011;19080;51.750;5.888;2023-02-15T09:16:29;33.97;;;22.23;;
32319;SDS011;19080;51.750;5.888;2023-02-15T09:18:58;27.95;;;21.35;;
32319;SDS011;19080;51.750;5.888;2023-02-15T09:21:27;32.22;;;21.98;;
32319;SDS011;19080;51.750;5.888;2023-02-15T09:23:56;36.80;;;23.80;;
32319;SDS011;19080;51.750;5.888;2023-02-15T09:26:26;33.33;;;21.88;;
32319;SDS011;19080;51.750;5.888;2023-02-15T09:28:55;36.80;;;23.90;;
32319;SDS011;19080;51.750;5.888;2023-02-15T09:31:25;33.63;;;22.35;;
32319;SDS011;19080;51.750;5.888;2023-02-15T09:33:53;30.08;;;21.35;;
32319;SDS011;19080;51.750;5.888;2023-02-15T09:36:36;33.08;;;22.88;;
32319;SDS011;19080;51.750;5.888;2023-02-15T09:39:15;32.75;;;22.73;;
32319;SDS011;19080;51.750;5.888;2023-02-15T09:44:33;30.52;;;20.52;;
32319;SDS011;19080;51.750;5.888;2023-02-15T09:57:03;28.98;;;21.08;;
32319;SDS011;19080;51.750;5.888;2023-02-15T10:04:47;34.72;;;23.25;;
32319;SDS011;19080;51.750;5.888;2023-02-15T10:07:35;34.45;;;21.95;;
32319;SDS011;19080;51.750;5.888;2023-02-15T10:15:50;33.40;;;22.00;;
32319;SDS011;19080;51.750;5.888;2023-02-15T10:24:17;34.22;;;23.75;;
32319;SDS011;19080;51.750;5.888;2023-02-15T10:26:48;32.97;;;22.27;;
32319;SDS011;19080;51.750;5.888;2023-02-15T10:32:16;27.42;;;20.58;;
32319;SDS011;19080;51.750;5.888;2023-02-15T10:35:01;30.85;;;21.83;;
32319;SDS011;19080;51.750;5.888;2023-02-15T10:43:14;28.73;;;21.20;;
32319;SDS011;19080;51.750;5.888;2023-02-15T10:48:39;32.40;;;23.63;;
32319;SDS011;19080;51.750;5.888;2023-02-15T10:51:10;30.60;;;22.20;;
32319;SDS011;19080;51.750;5.888;2023-02-15T11:02:13;31.77;;;22.90;;
32319;SDS011;19080;51.750;5.888;2023-02-15T11:04:53;35.38;;;24.83;;
32319;SDS011;19080;51.750;5.888;2023-02-15T11:07:41;31.08;;;22.23;;
32319;SDS011;19080;51.750;5.888;2023-02-15T11:15:15;34.97;;;22.48;;
32319;SDS011;19080;51.750;5.888;2023-02-15T11:17:55;31.83;;;22.52;;
32319;SDS011;19080;51.750;5.888;2023-02-15T11:20:33;30.88;;;22.95;;
32319;SDS011;19080;51.750;5.888;2023-02-15T11:23:13;35.05;;;24.90;;
32319;SDS011;19080;51.750;5.888;2023-02-15T11:28:15;30.92;;;22.35;;
32319;SDS011;19080;51.750;5.888;2023-02-15T11:30:47;30.15;;;22.95;;
32319;SDS011;19080;51.750;5.888;2023-02-15T11:35:49;35.20;;;22.55;;
32319;SDS011;19080;51.750;5.888;2023-02-15T11:38:21;32.70;;;23.13;;
32319;SDS011;19080;51.750;5.888;2023-02-15T11:40:59;29.27;;;21.48;;
32319;SDS011;19080;51.750;5.888;2023-02-15T11:43:32;30.20;;;21.58;;
32319;SDS011;19080;51.750;5.888;2023-02-15T11:46:00;32.95;;;23.17;;
32319;SDS011;19080;51.750;5.888;2023-02-15T11:48:27;36.00;;;25.13;;
32319;SDS011;19080;51.750;5.888;2023-02-15T11:50:57;34.60;;;23.95;;
32319;SDS011;19080;51.750;5.888;2023-02-15T11:53:24;30.35;;;21.65;;
32319;SDS011;19080;51.750;5.888;2023-02-15T11:55:54;31.60;;;23.63;;
32319;SDS011;19080;51.750;5.888;2023-02-15T12:00:52;35.08;;;23.38;;
32319;SDS011;19080;51.750;5.888;2023-02-15T12:03:26;34.05;;;23.77;;
32319;SDS011;19080;51.750;5.888;2023-02-15T12:14:56;32.70;;;22.33;;
32319;SDS011;19080;51.750;5.888;2023-02-15T12:20:23;32.33;;;22.67;;
32319;SDS011;19080;51.750;5.888;2023-02-15T12:22:59;33.90;;;22.33;;
32319;SDS011;19080;51.750;5.888;2023-02-15T12:28:23;35.03;;;23.67;;
32319;SDS011;19080;51.750;5.888;2023-02-15T12:30:53;36.58;;;23.98;;
32319;SDS011;19080;51.750;5.888;2023-02-15T12:33:32;32.40;;;22.35;;
32319;SDS011;19080;51.750;5.888;2023-02-15T12:36:20;32.78;;;22.67;;
32319;SDS011;19080;51.750;5.888;2023-02-15T12:41:38;36.58;;;24.17;;
32319;SDS011;19080;51.750;5.888;2023-02-15T12:44:17;33.83;;;23.48;;
32319;SDS011;19080;51.750;5.888;2023-02-15T12:49:34;36.33;;;24.80;;
32319;SDS011;19080;51.750;5.888;2023-02-15T12:52:05;32.80;;;23.88;;
32319;SDS011;19080;51.750;5.888;2023-02-15T12:54:48;36.25;;;25.30;;
32319;SDS011;19080;51.750;5.888;2023-02-15T12:57:26;34.10;;;23.67;;
32319;SDS011;19080;51.750;5.888;2023-02-15T13:04:57;46.17;;;30.45;;
32319;SDS011;19080;51.750;5.888;2023-02-15T13:07:31;33.83;;;23.63;;
32319;SDS011;19080;51.750;5.888;2023-02-15T13:09:58;33.70;;;22.73;;
32319;SDS011;19080;51.750;5.888;2023-02-15T13:12:26;32.72;;;23.10;;
32319;SDS011;19080;51.750;5.888;2023-02-15T13:14:56;30.37;;;22.13;;
32319;SDS011;19080;51.750;5.888;2023-02-15T13:17:29;32.70;;;22.42;;
32319;SDS011;19080;51.750;5.888;2023-02-15T13:20:01;30.88;;;22.25;;
32319;SDS011;19080;51.750;5.888;2023-02-15T13:22:40;34.45;;;23.98;;
32319;SDS011;19080;51.750;5.888;2023-02-15T13:27:43;35.70;;;23.05;;
32319;SDS011;19080;51.750;5.888;2023-02-15T13:30:28;35.92;;;22.92;;
32319;SDS011;19080;51.750;5.888;2023-02-15T13:33:05;32.55;;;23.38;;
32319;SDS011;19080;51.750;5.888;2023-02-15T13:35:37;34.85;;;23.80;;
32319;SDS011;19080;51.750;5.888;2023-02-15T13:38:14;31.35;;;22.83;;
32319;SDS011;19080;51.750;5.888;2023-02-15T13:40:55;32.38;;;21.98;;
32319;SDS011;19080;51.750;5.888;2023-02-15T13:43:32;34.83;;;24.05;;
32319;SDS011;19080;51.750;5.888;2023-02-15T13:48:44;32.45;;;22.65;;
32319;SDS011;19080;51.750;5.888;2023-02-15T13:51:24;33.88;;;23.45;;
32319;SDS011;19080;51.750;5.888;2023-02-15T14:08:01;36.67;;;23.33;;
32319;SDS011;19080;51.750;5.888;2023-02-15T14:10:43;32.42;;;23.45;;
32319;SDS011;19080;51.750;5.888;2023-02-15T14:13:36;38.42;;;26.00;;
32319;SDS011;19080;51.750;5.888;2023-02-15T14:16:26;34.53;;;23.63;;
32319;SDS011;19080;51.750;5.888;2023-02-15T14:21:37;33.78;;;23.20;;
32319;SDS011;19080;51.750;5.888;2023-02-15T14:24:18;36.95;;;25.23;;
32319;SDS011;19080;51.750;5.888;2023-02-15T14:27:10;35.67;;;24.05;;
32319;SDS011;19080;51.750;5.888;2023-02-15T14:29:57;33.42;;;23.58;;
32319;SDS011;19080;51.750;5.888;2023-02-15T14:32:28;37.45;;;24.20;;
32319;SDS011;19080;51.750;5.888;2023-02-15T14:35:09;35.45;;;23.33;;
32319;SDS011;19080;51.750;5.888;2023-02-15T14:43:14;37.58;;;23.65;;
32319;SDS011;19080;51.750;5.888;2023-02-15T14:45:47;39.33;;;23.95;;
32319;SDS011;19080;51.750;5.888;2023-02-15T14:48:32;37.17;;;24.15;;
32319;SDS011;19080;51.750;5.888;2023-02-15T14:51:04;34.65;;;24.08;;
32319;SDS011;19080;51.750;5.888;2023-02-15T14:58:37;36.15;;;24.60;;
32319;SDS011;19080;51.750;5.888;2023-02-15T15:01:07;36.25;;;24.30;;
32319;SDS011;19080;51.750;5.888;2023-02-15T15:03:36;38.58;;;26.08;;
32319;SDS011;19080;51.750;5.888;2023-02-15T15:06:31;37.05;;;25.08;;
32319;SDS011;19080;51.750;5.888;2023-02-15T15:11:49;39.70;;;24.92;;
32319;SDS011;19080;51.750;5.888;2023-02-15T15:14:50;35.15;;;24.88;;
32319;SDS011;19080;51.750;5.888;2023-02-15T15:22:21;32.95;;;23.83;;
32319;SDS011;19080;51.750;5.888;2023-02-15T15:24:51;32.63;;;22.23;;
32319;SDS011;19080;51.750;5.888;2023-02-15T15:46:26;40.73;;;26.27;;
32319;SDS011;19080;51.750;5.888;2023-02-15T15:49:19;37.80;;;25.60;;
32319;SDS011;19080;51.750;5.888;2023-02-15T15:51:47;40.47;;;25.52;;
32319;SDS011;19080;51.750;5.888;2023-02-15T15:54:19;39.88;;;26.73;;
32319;SDS011;19080;51.750;5.888;2023-02-15T15:56:55;38.28;;;25.95;;
32319;SDS011;19080;51.750;5.888;2023-02-15T15:59:25;40.33;;;25.85;;
32319;SDS011;19080;51.750;5.888;2023-02-15T16:01:54;38.85;;;26.67;;
32319;SDS011;19080;51.750;5.888;2023-02-15T16:04:22;40.10;;;25.35;;
32319;SDS011;19080;51.750;5.888;2023-02-15T16:06:56;39.15;;;25.27;;
32319;SDS011;19080;51.750;5.888;2023-02-15T16:09:25;37.45;;;25.48;;
32319;SDS011;19080;51.750;5.888;2023-02-15T16:11:54;38.20;;;26.27;;
32319;SDS011;19080;51.750;5.888;2023-02-15T16:14:30;39.15;;;26.80;;
32319;SDS011;19080;51.750;5.888;2023-02-15T16:17:05;43.53;;;29.83;;
32319;SDS011;19080;51.750;5.888;2023-02-15T16:19:36;42.22;;;28.08;;
32319;SDS011;19080;51.750;5.888;2023-02-15T16:22:18;36.33;;;24.83;;
32319;SDS011;19080;51.750;5.888;2023-02-15T16:28:10;35.67;;;23.25;;
32319;SDS011;19080;51.750;5.888;2023-02-15T16:30:39;37.88;;;25.67;;
32319;SDS011;19080;51.750;5.888;2023-02-15T16:33:09;34.03;;;24.30;;
32319;SDS011;19080;51.750;5.888;2023-02-15T16:35:53;38.53;;;24.08;;
32319;SDS011;19080;51.750;5.888;2023-02-15T16:39:08;41.72;;;25.83;;
32319;SDS011;19080;51.750;5.888;2023-02-15T16:41:14;35.45;;;24.38;;
32319;SDS011;19080;51.750;5.888;2023-02-15T16:44:06;42.63;;;26.35;;
32319;SDS011;19080;51.750;5.888;2023-02-15T16:46:42;37.13;;;25.23;;
32319;SDS011;19080;51.750;5.888;2023-02-15T16:49:16;39.92;;;25.88;;
32319;SDS011;19080;51.750;5.888;2023-02-15T16:51:54;38.08;;;26.55;;
32319;SDS011;19080;51.750;5.888;2023-02-15T16:54:26;38.50;;;25.90;;
32319;SDS011;19080;51.750;5.888;2023-02-15T16:56:55;36.72;;;26.25;;
32319;SDS011;19080;51.750;5.888;2023-02-15T16:59:35;40.05;;;26.10;;
32319;SDS011;19080;51.750;5.888;2023-02-15T17:02:06;38.28;;;23.83;;
32319;SDS011;19080;51.750;5.888;2023-02-15T17:07:40;37.70;;;25.08;;
32319;SDS011;19080;51.750;5.888;2023-02-15T17:10:43;35.67;;;24.42;;
32319;SDS011;19080;51.750;5.888;2023-02-15T17:13:05;35.40;;;24.65;;
32319;SDS011;19080;51.750;5.888;2023-02-15T17:16:08;37.08;;;24.08;;
32319;SDS011;19080;51.750;5.888;2023-02-15T17:18:30;37.65;;;25.40;;
32319;SDS011;19080;51.750;5.888;2023-02-15T17:21:01;43.20;;;27.85;;
32319;SDS011;19080;51.750;5.888;2023-02-15T17:23:40;53.58;;;31.77;;
32319;SDS011;19080;51.750;5.888;2023-02-15T17:26:17;42.60;;;27.25;;
32319;SDS011;19080;51.750;5.888;2023-02-15T17:28:48;44.13;;;27.75;;
32319;SDS011;19080;51.750;5.888;2023-02-15T17:31:18;42.88;;;26.85;;
32319;SDS011;19080;51.750;5.888;2023-02-15T17:33:47;46.03;;;28.40;;
32319;SDS011;19080;51.750;5.888;2023-02-15T17:36:18;43.83;;;27.35;;
32319;SDS011;19080;51.750;5.888;2023-02-15T17:41:24;42.53;;;26.58;;
32319;SDS011;19080;51.750;5.888;2023-02-15T17:43:55;41.53;;;25.67;;
32319;SDS011;19080;51.750;5.888;2023-02-15T17:46:22;38.38;;;23.63;;
32319;SDS011;19080;51.750;5.888;2023-02-15T17:48:50;42.40;;;26.85;;
32319;SDS011;19080;51.750;5.888;2023-02-15T17:51:20;40.92;;;24.95;;
32319;SDS011;19080;51.750;5.888;2023-02-15T17:53:48;33.67;;;22.15;;
32319;SDS011;19080;51.750;5.888;2023-02-15T17:56:34;46.42;;;27.02;;
32319;SDS011;19080;51.750;5.888;2023-02-15T17:59:03;46.10;;;26.25;;
32319;SDS011;19080;51.750;5.888;2023-02-15T18:01:33;43.63;;;25.75;;